Time;durP1;ratioP1;P1;durP2;ratioP2;P2;SDS_P1;SDS_P2;PMS_P1;PMS_P2;Temp;Humidity;BMP_temperature;BMP_pressure;BME280_temperature;BME280_humidity;BME280_pressure;Samples;Min_cycle;Max_cycle;Signal;HPM_P1;HPM_P2
2022/12/18 00:01:34;;;;;;;;;66.50;50.25;;;;;-1.70;55.63;101978.22;5061043;28;45492;-45
2022/12/18 00:04:01;;;;;;;;;64.50;51.75;;;;;-1.71;55.86;101978.09;5061313;28;45375;-45
2022/12/18 00:06:28;;;;;;;;;65.50;51.00;;;;;-1.71;56.36;101975.53;5061102;28;46184;-45
2022/12/18 00:08:56;;;;;;;;;53.50;47.75;;;;;-1.70;56.00;101987.63;5076713;28;45476;-48
2022/12/18 00:11:24;;;;;;;;;71.50;51.00;;;;;-1.72;56.07;101977.22;5060985;28;45230;-46
2022/12/18 00:13:50;;;;;;;;;69.00;51.50;;;;;-1.70;56.44;101990.19;5061032;28;45351;-46
2022/12/18 00:16:21;;;;;;;;;67.50;50.50;;;;;-1.70;56.07;101985.03;5076396;28;46552;-46
2022/12/18 00:18:48;;;;;;;;;70.50;51.25;;;;;-1.70;56.45;101983.38;5061034;28;45337;-46
2022/12/18 00:21:13;;;;;;;;;67.50;51.00;;;;;-1.73;56.53;101978.03;5061138;28;45308;-45
2022/12/18 00:23:42;;;;;;;;;74.25;57.25;;;;;-1.72;55.94;101982.38;5076665;28;45450;-45
2022/12/18 00:26:16;;;;;;;;;72.50;54.75;;;;;-1.71;56.32;101988.41;5060554;28;45930;-44
2022/12/18 00:28:42;;;;;;;;;75.00;60.33;;;;;-1.72;55.67;101979.81;5060761;28;45411;-46
2022/12/18 00:31:10;;;;;;;;;73.33;60.33;;;;;-1.71;56.18;101983.25;5060530;28;45449;-47
2022/12/18 00:33:35;;;;;;;;;66.33;55.00;;;;;-1.73;55.92;101983.19;5060605;28;45343;-47
2022/12/18 00:36:02;;;;;;;;;63.75;52.00;;;;;-1.71;56.33;101975.53;5060661;28;45398;-46
2022/12/18 00:38:28;;;;;;;;;71.75;53.25;;;;;-1.71;56.26;101988.41;5060534;28;45435;-44
2022/12/18 00:40:53;;;;;;;;;71.25;56.00;;;;;-1.74;56.53;101986.56;5060736;28;45323;-44
2022/12/18 00:43:19;;;;;;;;;64.25;50.25;;;;;-1.74;56.45;101991.72;5072086;28;45347;-46
2022/12/18 00:45:45;;;;;;;;;73.00;59.00;;;;;-1.70;55.95;101998.84;5060287;28;45902;-44
2022/12/18 00:48:10;;;;;;;;;77.33;57.33;;;;;-1.81;56.02;101976.72;5060364;28;45334;-45
2022/12/18 00:50:35;;;;;;;;;70.50;54.00;;;;;-1.69;56.44;102005.75;5060620;28;45307;-46
2022/12/18 00:53:01;;;;;;;;;70.25;55.50;;;;;-1.67;56.05;102003.28;5075784;28;45474;-46
2022/12/18 00:55:26;;;;;;;;;64.50;52.00;;;;;-1.67;55.99;101999.00;5060242;28;45320;-44
2022/12/18 00:57:52;;;;;;;;;73.75;55.75;;;;;-1.68;56.67;101994.63;5060032;28;45323;-48
2022/12/18 01:00:17;;;;;;;;;69.33;52.33;;;;;-1.66;55.74;101997.28;5075846;28;45386;-46
2022/12/18 01:02:43;;;;;;;;;73.00;55.00;;;;;-1.67;56.14;101992.97;5060709;27;45353;-44
2022/12/18 01:05:10;;;;;;;;;70.00;54.25;;;;;-1.64;56.04;101994.00;5060228;28;45250;-45
2022/12/18 01:07:36;;;;;;;;;65.25;51.75;;;;;-1.63;56.57;101994.91;5060192;28;45164;-46
2022/12/18 01:10:03;;;;;;;;;72.75;55.50;;;;;-1.64;56.12;101983.69;5060376;28;45444;-45
2022/12/18 01:12:28;;;;;;;;;69.25;51.00;;;;;-1.65;56.05;101975.88;5059887;28;45298;-44
2022/12/18 01:14:54;;;;;;;;;71.50;54.50;;;;;-1.66;56.27;101975.00;5059783;28;47132;-46
2022/12/18 01:17:19;;;;;;;;;66.50;52.75;;;;;-1.64;55.82;101968.22;5059966;28;45377;-47
2022/12/18 01:19:45;;;;;;;;;66.75;54.50;;;;;-1.64;56.26;101975.06;5060367;28;45240;-48
2022/12/18 01:22:10;;;;;;;;;62.25;49.00;;;;;-1.68;56.08;101971.44;5059872;28;45290;-45
2022/12/18 01:24:35;;;;;;;;;67.25;53.00;;;;;-1.68;56.27;101974.00;5059917;28;45326;-44
2022/12/18 01:27:01;;;;;;;;;68.00;54.75;;;;;-1.66;56.33;101974.09;5059688;28;45268;-45
2022/12/18 01:29:26;;;;;;;;;64.75;51.25;;;;;-1.67;55.89;101978.38;5060164;28;45428;-48
2022/12/18 01:31:55;;;;;;;;;67.25;51.00;;;;;-1.68;56.04;101976.59;5059475;28;45251;-45
2022/12/18 01:34:21;;;;;;;;;71.00;55.00;;;;;-1.68;55.69;101984.31;5059800;28;46288;-45
2022/12/18 01:36:46;;;;;;;;;74.25;54.50;;;;;-1.67;55.78;101982.66;5059887;28;45320;-47
2022/12/18 01:39:13;;;;;;;;;71.50;54.25;;;;;-1.68;56.17;101992.06;5060008;28;45191;-47
2022/12/18 01:44:58;;;;;;;;;60.75;49.50;;;;;-1.69;56.19;101979.09;5059655;28;45251;-45
2022/12/18 01:47:23;;;;;;;;;73.00;55.25;;;;;-1.72;56.23;101974.66;5059764;28;45215;-45
2022/12/18 01:49:48;;;;;;;;;63.75;48.75;;;;;-1.73;56.22;101982.31;5075267;28;45178;-47
2022/12/18 01:52:15;;;;;;;;;66.00;53.00;;;;;-1.72;56.42;101984.97;5059554;28;45228;-44
2022/12/18 01:54:40;;;;;;;;;63.75;48.50;;;;;-1.73;56.56;101977.16;5059369;28;46394;-45
2022/12/18 01:57:06;;;;;;;;;67.75;56.00;;;;;-1.76;55.97;101964.06;5059588;28;45294;-46
2022/12/18 01:59:33;;;;;;;;;79.50;56.75;;;;;-1.74;56.58;101963.34;5059602;28;45277;-45
2022/12/18 02:01:59;;;;;;;;;65.75;50.50;;;;;-1.74;56.17;101967.63;5059258;28;45245;-48
2022/12/18 02:04:26;;;;;;;;;77.25;59.00;;;;;-1.80;56.40;101956.19;5074866;28;48280;-45
2022/12/18 02:07:08;;;;;;;;;75.67;59.33;;;;;-1.81;56.01;101948.38;5061168;28;45256;-46
2022/12/18 02:09:58;;;;;;;;;70.25;56.00;;;;;-1.78;56.11;101950.22;5063044;28;45421;-48
2022/12/18 02:12:34;;;;;;;;;75.00;56.67;;;;;-1.79;56.18;101946.75;5062725;28;45345;-45
2022/12/18 02:15:05;;;;;;;;;75.67;58.33;;;;;-1.80;55.84;101945.88;5062722;28;46114;-49
2022/12/18 02:17:43;;;;;;;;;65.75;50.50;;;;;-1.80;55.62;101944.97;5062757;28;45422;-45
2022/12/18 02:20:23;;;;;;;;;68.25;53.50;;;;;-1.82;56.54;101939.72;5062987;28;45302;-46
2022/12/18 02:22:58;;;;;;;;;55.00;43.75;;;;;-1.82;55.73;101939.72;5062771;28;45307;-46
2022/12/18 02:25:50;;;;;;;;;66.50;53.00;;;;;-1.82;56.18;101938.84;5062520;28;45456;-48
2022/12/18 02:28:20;;;;;;;;;68.50;54.00;;;;;-1.85;55.90;101933.50;5069871;28;45206;-45
2022/12/18 02:30:48;;;;;;;;;73.67;54.00;;;;;-1.85;55.83;101933.50;5062473;28;45414;-44
2022/12/18 02:33:15;;;;;;;;;67.25;48.75;;;;;-1.87;56.62;101932.56;5062646;28;45522;-49
2022/12/18 02:35:44;;;;;;;;;68.25;54.50;;;;;-1.86;55.67;101934.31;5078044;28;48558;-45
2022/12/18 02:38:10;;;;;;;;;65.75;51.75;;;;;-1.87;56.13;101937.72;5062451;28;45288;-48
2022/12/18 02:40:38;;;;;;;;;66.33;50.33;;;;;-1.88;55.79;101931.66;5062566;28;45355;-46
2022/12/18 02:43:15;;;;;;;;;66.00;52.00;;;;;-1.90;56.70;101922.06;5062202;28;45228;-46
2022/12/18 02:45:55;;;;;;;;;64.25;49.50;;;;;-1.92;55.73;101923.69;5050289;28;46220;-45
2022/12/18 02:48:29;;;;;;;;;62.00;50.25;;;;;-1.93;56.34;101916.75;5062234;28;45406;-45
2022/12/18 02:51:17;;;;;;;;;62.50;51.75;;;;;-1.97;56.57;101911.41;5062518;28;45407;-46
2022/12/18 02:53:56;;;;;;;;;67.50;52.25;;;;;-1.97;56.60;101913.13;5077977;28;45271;-45
2022/12/18 02:56:34;;;;;;;;;59.75;48.25;;;;;-1.99;56.51;101902.75;5061985;28;45321;-45
2022/12/18 02:59:09;;;;;;;;;63.25;48.50;;;;;-2.04;55.83;101888.69;5062417;28;45307;-48
2022/12/18 03:01:46;;;;;;;;;42.50;38.00;;;;;-2.02;56.13;101905.13;5062016;28;45257;-48
2022/12/18 03:04:38;;;;;;;;;75.50;57.00;;;;;-2.03;56.00;101900.78;5062041;28;45327;-46
2022/12/18 03:07:15;;;;;;;;;77.00;60.00;;;;;-2.05;56.61;101892.09;5077588;28;47325;-47
2022/12/18 03:09:44;;;;;;;;;56.50;45.00;;;;;-2.05;56.49;101892.09;5061836;28;45257;-46
2022/12/18 03:12:29;;;;;;;;;67.75;52.00;;;;;-2.05;56.30;101896.34;5077635;28;45194;-47
2022/12/18 03:15:15;;;;;;;;;60.50;51.25;;;;;-2.07;56.44;101893.69;5062018;28;45288;-47
2022/12/18 03:17:46;;;;;;;;;65.25;52.75;;;;;-2.12;55.96;101892.53;5037581;28;45333;-47
2022/12/18 03:20:19;;;;;;;;;70.75;51.50;;;;;-2.13;56.45;101893.34;5062038;28;45633;-47
2022/12/18 03:22:53;;;;;;;;;52.25;44.50;;;;;-2.12;56.49;101900.25;5060661;28;45327;-48
2022/12/18 03:25:19;;;;;;;;;62.25;52.00;;;;;-2.13;56.60;101913.94;5050986;28;45326;-44
2022/12/18 03:27:49;;;;;;;;;69.25;53.25;;;;;-2.15;56.58;101911.28;5061621;28;45303;-47
2022/12/18 03:30:17;;;;;;;;;70.50;51.75;;;;;-2.17;56.69;101902.56;5061516;28;45264;-46
2022/12/18 03:32:56;;;;;;;;;51.00;46.50;;;;;-2.17;56.23;101906.84;5061754;28;45407;-46
2022/12/18 03:35:29;;;;;;;;;73.75;52.00;;;;;-2.19;56.75;101905.88;5061675;28;45371;-45
2022/12/18 03:37:54;;;;;;;;;63.00;51.00;;;;;-2.20;55.83;101909.22;5061749;28;46041;-45
2022/12/18 03:40:27;;;;;;;;;68.50;49.25;;;;;-2.23;56.70;101907.38;5061386;28;45343;-46
2022/12/18 03:43:03;;;;;;;;;63.25;47.25;;;;;-2.23;55.95;101911.66;5061544;28;45273;-49
2022/12/18 03:45:37;;;;;;;;;55.25;44.50;;;;;-2.24;55.98;101913.31;5061209;28;45517;-48
2022/12/18 03:48:17;;;;;;;;;67.75;51.50;;;;;-2.23;56.62;101909.94;5061262;28;46196;-46
2022/12/18 03:50:42;;;;;;;;;58.75;48.50;;;;;-2.24;56.84;101903.03;5061514;28;45244;-47
2022/12/18 03:53:31;;;;;;;;;66.25;49.50;;;;;-2.24;56.51;101899.56;5061186;28;45537;-45
2022/12/18 03:55:58;;;;;;;;;59.75;46.00;;;;;-2.23;56.23;101901.34;5061313;28;45289;-44
2022/12/18 03:58:25;;;;;;;;;58.75;47.75;;;;;-2.26;55.79;101890.84;5061334;28;46469;-45
2022/12/18 04:00:55;;;;;;;;;63.75;46.25;;;;;-2.23;56.65;101891.06;5061048;28;45275;-49
2022/12/18 04:03:22;;;;;;;;;66.75;49.00;;;;;-2.26;56.40;101877.97;5061579;28;45311;-44
2022/12/18 04:05:51;;;;;;;;;60.50;46.00;;;;;-2.24;56.96;101878.97;5061100;28;45431;-46
2022/12/18 04:08:17;;;;;;;;;67.25;50.50;;;;;-2.24;56.72;101868.66;5061248;28;46103;-44
2022/12/18 04:10:42;;;;;;;;;60.75;47.00;;;;;-2.25;56.24;101861.72;5076633;28;45328;-44
2022/12/18 04:13:09;;;;;;;;;49.25;44.50;;;;;-2.25;56.53;101857.50;5061067;28;45377;-44
2022/12/18 04:15:36;;;;;;;;;65.25;49.75;;;;;-2.26;56.45;101857.38;5060759;28;45224;-45
2022/12/18 04:18:01;;;;;;;;;58.50;40.25;;;;;-2.26;56.45;101862.53;5076684;28;45965;-46
2022/12/18 04:20:27;;;;;;;;;63.75;50.25;;;;;-2.25;56.36;101860.06;5060697;28;45333;-45
2022/12/18 04:22:52;;;;;;;;;67.75;50.50;;;;;-2.23;56.63;101873.03;5061141;28;45218;-45
2022/12/18 04:25:18;;;;;;;;;51.25;45.75;;;;;-2.25;56.81;101866.88;5060781;28;45449;-45
2022/12/18 04:27:43;;;;;;;;;65.50;51.25;;;;;-2.24;56.30;101866.09;5072131;28;45842;-44
2022/12/18 04:30:09;;;;;;;;;63.75;49.00;;;;;-2.22;56.52;101864.50;5059987;28;45324;-45
2022/12/18 04:32:35;;;;;;;;;51.00;44.75;;;;;-2.24;56.51;101866.09;5060867;28;45465;-46
2022/12/18 04:35:00;;;;;;;;;69.25;52.00;;;;;-2.22;57.19;101879.94;5060498;28;45498;-47
2022/12/18 04:37:26;;;;;;;;;52.75;45.25;;;;;-2.21;56.92;101874.88;5060741;28;45299;-48
2022/12/18 04:39:51;;;;;;;;;53.75;45.00;;;;;-2.22;56.87;101872.22;5060564;28;45322;-47
2022/12/18 04:42:16;;;;;;;;;65.25;50.25;;;;;-2.21;56.77;101864.56;5060642;28;45482;-45
2022/12/18 04:44:42;;;;;;;;;59.50;45.75;;;;;-2.22;56.86;101861.91;5060219;28;45464;-45
2022/12/18 04:47:07;;;;;;;;;67.75;55.00;;;;;-2.21;56.29;101871.44;5060613;28;45441;-44
2022/12/18 04:49:32;;;;;;;;;67.75;49.00;;;;;-2.20;56.45;101876.66;5060439;28;45401;-46
2022/12/18 04:51:58;;;;;;;;;64.25;50.25;;;;;-2.20;56.74;101873.19;5060521;28;45271;-44
2022/12/18 04:54:23;;;;;;;;;62.50;46.75;;;;;-2.15;56.31;101882.03;5060224;28;45591;-47
2022/12/18 04:56:49;;;;;;;;;65.00;51.75;;;;;-2.14;56.65;101883.81;5060221;28;45173;-46
2022/12/18 04:59:14;;;;;;;;;56.00;47.00;;;;;-2.14;56.27;101881.25;5060423;28;45170;-45
2022/12/18 05:01:40;;;;;;;;;51.00;46.50;;;;;-2.12;56.67;101884.81;5060214;28;45422;-47
2022/12/18 05:04:05;;;;;;;;;54.75;47.00;;;;;-2.17;56.41;101887.13;5060328;27;45423;-45
2022/12/18 05:06:30;;;;;;;;;63.50;49.50;;;;;-2.12;56.26;101900.25;5060277;28;46262;-46
2022/12/18 05:08:56;;;;;;;;;69.25;50.75;;;;;-2.11;56.22;101894.31;5060254;28;45416;-46
2022/12/18 05:11:21;;;;;;;;;60.50;48.50;;;;;-2.14;56.90;101882.16;5060021;28;45442;-46
2022/12/18 05:13:47;;;;;;;;;63.75;46.25;;;;;-2.13;56.35;101885.59;5060203;28;45244;-46
2022/12/18 05:16:13;;;;;;;;;58.50;46.75;;;;;-2.13;56.49;101889.09;5059706;28;46045;-47
2022/12/18 05:18:39;;;;;;;;;65.25;50.75;;;;;-2.11;56.65;101894.31;5060320;28;45487;-47
2022/12/18 05:21:04;;;;;;;;;67.00;49.25;;;;;-2.15;56.71;101889.78;5075762;28;45432;-48
2022/12/18 05:23:30;;;;;;;;;55.75;47.25;;;;;-2.12;57.23;101895.13;5060260;28;45342;-45
2022/12/18 05:26:01;;;;;;;;;55.50;47.25;;;;;-2.13;56.43;101898.50;5059657;28;45405;-47
2022/12/18 05:28:28;;;;;;;;;55.00;45.25;;;;;-2.13;56.80;101896.81;5060056;28;45163;-45
2022/12/18 05:30:56;;;;;;;;;64.25;50.25;;;;;-2.13;56.78;101898.50;5060087;28;45411;-47
2022/12/18 05:33:24;;;;;;;;;51.75;45.50;;;;;-2.14;57.04;101901.84;5059746;28;45499;-47
2022/12/18 05:35:55;;;;;;;;;55.50;45.75;;;;;-2.13;56.98;101911.38;5059974;28;45409;-47
2022/12/18 05:38:22;;;;;;;;;64.50;48.50;;;;;-2.13;57.61;101919.09;5059879;28;45306;-47
2022/12/18 05:40:49;;;;;;;;;65.50;48.75;;;;;-2.14;57.08;101912.16;5075736;28;45432;-48
2022/12/18 05:43:15;;;;;;;;;66.50;52.25;;;;;-2.14;56.92;101917.31;5075565;27;45470;-48
2022/12/18 05:45:41;;;;;;;;;58.25;45.00;;;;;-2.15;57.19;101926.75;5063206;28;45347;-45
2022/12/18 05:48:08;;;;;;;;;55.00;46.75;;;;;-2.14;57.15;101933.69;5063383;28;45245;-46
2022/12/18 05:50:35;;;;;;;;;65.75;51.00;;;;;-2.14;56.51;101917.31;5063530;28;45307;-47
2022/12/18 05:53:01;;;;;;;;;62.00;50.00;;;;;-2.14;56.88;101901.84;5078910;27;45560;-45
2022/12/18 05:55:26;;;;;;;;;51.00;45.25;;;;;-2.13;56.72;101901.97;5063402;28;46216;-48
2022/12/18 05:57:52;;;;;;;;;63.25;47.25;;;;;-2.14;57.34;101899.28;5063193;28;45260;-48
2022/12/18 06:00:17;;;;;;;;;67.25;51.50;;;;;-2.14;56.61;101888.97;5078985;28;45379;-46
2022/12/18 06:02:47;;;;;;;;;67.75;47.50;;;;;-2.11;57.34;101886.59;5063156;28;45344;-45
2022/12/18 06:05:12;;;;;;;;;59.75;46.75;;;;;-2.12;56.49;101874.50;5063142;28;46399;-46
2022/12/18 06:07:37;;;;;;;;;60.50;44.50;;;;;-2.12;56.93;101883.09;5063184;28;45154;-46
2022/12/18 06:10:03;;;;;;;;;68.50;51.25;;;;;-2.12;57.24;101877.09;5063280;28;45329;-49
2022/12/18 06:12:28;;;;;;;;;61.25;48.50;;;;;-2.13;57.25;101878.78;5062932;28;45432;-45
2022/12/18 06:14:54;;;;;;;;;57.50;45.25;;;;;-2.13;57.02;101875.31;5062676;28;46130;-46
2022/12/18 06:17:19;;;;;;;;;62.00;49.25;;;;;-2.14;56.95;101868.38;5062917;28;45308;-45
2022/12/18 06:19:44;;;;;;;;;53.25;42.25;;;;;-2.12;57.35;101874.50;5063165;28;45314;-48
2022/12/18 06:22:10;;;;;;;;;66.75;50.25;;;;;-2.14;56.66;101882.16;5062870;28;45326;-47
2022/12/18 06:24:35;;;;;;;;;58.25;47.50;;;;;-2.13;57.41;101877.88;5062756;28;47595;-45
2022/12/18 06:27:00;;;;;;;;;46.25;42.50;;;;;-2.14;57.27;101869.28;5062669;28;45425;-46
2022/12/18 06:29:26;;;;;;;;;54.50;46.75;;;;;-2.15;56.83;101874.31;5062846;28;45458;-48
2022/12/18 06:31:51;;;;;;;;;66.00;52.75;;;;;-2.15;57.19;101870.06;5062643;28;45311;-48
2022/12/18 06:34:16;;;;;;;;;59.25;45.75;;;;;-2.13;56.98;101877.88;5062614;28;46015;-46
2022/12/18 06:36:42;;;;;;;;;58.00;47.00;;;;;-2.15;56.98;101884.63;5062607;28;45272;-47
2022/12/18 06:39:07;;;;;;;;;55.75;48.25;;;;;-2.15;56.74;101885.53;5062881;28;45256;-45
2022/12/18 06:41:32;;;;;;;;;64.00;46.00;;;;;-2.17;57.08;101871.66;5062327;28;45509;-45
2022/12/18 06:43:58;;;;;;;;;61.25;50.00;;;;;-2.15;57.14;101877.81;5062535;28;45257;-46
2022/12/18 06:46:23;;;;;;;;;62.00;49.25;;;;;-2.15;56.81;101874.31;5062057;28;45252;-45
2022/12/18 06:48:50;;;;;;;;;53.75;44.50;;;;;-2.17;56.54;101869.09;5062665;28;45465;-47
2022/12/18 06:51:18;;;;;;;;;67.50;50.00;;;;;-2.20;57.38;101870.59;5077728;27;45558;-45
2022/12/18 06:53:43;;;;;;;;;63.50;49.25;;;;;-2.19;57.58;101881.00;5062146;28;46228;-46
2022/12/18 06:56:08;;;;;;;;;59.00;43.75;;;;;-2.19;57.22;101883.59;5077930;28;45330;-46
2022/12/18 06:58:33;;;;;;;;;60.50;45.75;;;;;-2.21;56.67;101874.88;5062521;27;45390;-47
2022/12/18 07:01:03;;;;;;;;;60.00;50.00;;;;;-2.20;57.25;101865.44;5062126;28;45438;-46
2022/12/18 07:03:29;;;;;;;;;67.75;55.50;;;;;-2.25;56.95;101852.34;5062215;28;45215;-47
2022/12/18 07:05:54;;;;;;;;;65.00;45.75;;;;;-2.24;57.31;101858.38;5062255;28;45227;-45
2022/12/18 07:08:19;;;;;;;;;61.00;50.50;;;;;-2.25;56.55;101851.44;5062366;28;45427;-45
2022/12/18 07:10:45;;;;;;;;;64.25;47.00;;;;;-2.27;57.14;101847.91;5062139;28;45251;-45
2022/12/18 07:13:10;;;;;;;;;59.00;44.75;;;;;-2.31;57.41;101850.28;5061797;28;45316;-45
2022/12/18 07:15:36;;;;;;;;;55.25;45.25;;;;;-2.29;57.15;101858.09;5077258;28;45428;-46
2022/12/18 07:18:02;;;;;;;;;64.75;50.75;;;;;-2.31;56.49;101858.00;5062323;28;45484;-46
2022/12/18 07:20:27;;;;;;;;;57.50;47.25;;;;;-2.31;56.96;101863.16;5061954;28;45228;-46
2022/12/18 07:22:52;;;;;;;;;58.75;48.00;;;;;-2.33;56.95;101858.72;5061815;28;45225;-46
2022/12/18 07:25:18;;;;;;;;;43.50;35.25;;;;;-2.38;56.81;101848.16;5066475;27;45450;-46
2022/12/18 07:27:43;;;;;;;;;59.25;49.75;;;;;-2.39;57.16;101832.63;5057415;28;45342;-47
2022/12/18 07:30:09;;;;;;;;;59.75;47.50;;;;;-2.37;56.89;101837.06;5071095;28;45502;-46
2022/12/18 07:32:35;;;;;;;;;50.50;42.25;;;;;-2.36;56.69;101841.44;5061685;28;47237;-45
2022/12/18 07:35:00;;;;;;;;;58.50;46.25;;;;;-2.38;56.58;101835.28;5061709;28;45273;-46
2022/12/18 07:37:25;;;;;;;;;61.25;48.25;;;;;-2.38;57.40;101842.13;5061991;28;45247;-46
2022/12/18 07:39:51;;;;;;;;;65.25;46.75;;;;;-2.36;57.30;101856.88;5061598;28;45322;-44
2022/12/18 07:42:32;;;;;;;;;67.50;47.75;;;;;-2.37;57.02;101869.66;5076924;27;46638;-45
2022/12/18 07:45:01;;;;;;;;;66.75;52.25;;;;;-2.38;57.19;101871.34;5056178;28;45248;-46
2022/12/18 07:47:41;;;;;;;;;57.00;45.00;;;;;-2.37;57.70;101875.69;5061784;28;45317;-45
2022/12/18 07:50:06;;;;;;;;;54.75;48.25;;;;;-2.37;57.59;101882.53;5061459;28;45248;-45
2022/12/18 07:52:32;;;;;;;;;66.75;50.00;;;;;-2.36;56.88;101890.34;5076888;28;48007;-48
2022/12/18 07:54:57;;;;;;;;;67.50;52.00;;;;;-2.37;57.07;101887.69;5061223;28;45412;-45
2022/12/18 07:57:22;;;;;;;;;58.25;47.00;;;;;-2.44;57.90;101865.84;5061542;28;45235;-46
2022/12/18 07:59:48;;;;;;;;;69.25;50.25;;;;;-2.36;57.55;101881.75;5076789;28;45659;-48
2022/12/18 08:02:14;;;;;;;;;58.75;47.50;;;;;-2.35;57.34;101881.81;5061326;28;47014;-46
2022/12/18 08:04:39;;;;;;;;;65.75;46.50;;;;;-2.36;57.11;101874.91;5060375;28;45328;-45
2022/12/18 08:07:05;;;;;;;;;52.75;40.75;;;;;-2.33;57.31;101861.31;5061442;28;45534;-47
2022/12/18 08:09:31;;;;;;;;;54.25;43.75;;;;;-2.33;56.84;101864.78;5061037;28;45489;-46
2022/12/18 08:11:56;;;;;;;;;55.00;45.25;;;;;-2.31;56.82;101862.28;5076679;28;45867;-46
2022/12/18 08:14:21;;;;;;;;;64.25;50.25;;;;;-2.28;57.11;101857.31;5060598;28;45494;-45
2022/12/18 08:16:47;;;;;;;;;61.50;47.00;;;;;-2.26;57.22;101865.09;5061214;28;45758;-45
2022/12/18 08:19:12;;;;;;;;;62.00;50.25;;;;;-2.25;57.95;101861.72;5060968;28;45441;-45
2022/12/18 08:21:40;;;;;;;;;69.25;52.75;;;;;-2.24;57.39;101866.97;5060908;28;45372;-46
2022/12/18 08:24:06;;;;;;;;;60.75;49.25;;;;;-2.23;57.68;101866.16;5060777;28;45307;-46
2022/12/18 08:26:31;;;;;;;;;58.75;47.50;;;;;-2.22;57.45;101882.53;5060944;28;45239;-46
2022/12/18 08:28:59;;;;;;;;;62.50;46.75;;;;;-2.19;57.02;101877.53;5060725;28;45255;-44
2022/12/18 08:31:25;;;;;;;;;65.75;45.50;;;;;-2.22;56.83;101873.09;5060447;28;46346;-44
2022/12/18 08:33:52;;;;;;;;;68.25;50.00;;;;;-2.16;57.29;101883.75;5060695;28;45528;-44
2022/12/18 08:36:19;;;;;;;;;61.50;46.00;;;;;-2.14;57.16;101886.41;5060954;28;45386;-44
2022/12/18 08:38:45;;;;;;;;;64.00;50.25;;;;;-2.13;57.10;101891.66;5060748;28;45296;-44
2022/12/18 08:41:13;;;;;;;;;59.50;46.25;;;;;-2.10;57.80;101898.69;5060450;28;45259;-45
2022/12/18 08:46:25;;;;;;;;;64.50;48.50;;;;;-2.16;57.72;101893.19;5060496;28;45443;-47
2022/12/18 08:48:52;;;;;;;;;67.75;46.50;;;;;-2.08;57.20;101896.19;5076333;28;45648;-47
2022/12/18 08:51:18;;;;;;;;;56.75;45.00;;;;;-2.07;58.04;101895.38;5060009;28;45569;-48
2022/12/18 08:53:46;;;;;;;;;65.75;50.25;;;;;-2.05;57.84;101897.25;5060563;28;45298;-45
2022/12/18 08:56:13;;;;;;;;;69.00;51.50;;;;;-2.02;57.64;101902.56;5060482;28;45352;-49
2022/12/18 08:58:38;;;;;;;;;61.00;47.00;;;;;-2.00;57.09;101906.13;5060499;28;46154;-48
2022/12/18 09:01:06;;;;;;;;;64.00;50.75;;;;;-1.96;57.52;101918.34;5059872;28;46386;-48
2022/12/18 09:03:31;;;;;;;;;58.25;45.50;;;;;-1.92;56.97;101924.56;5060371;28;45690;-48
2022/12/18 09:05:56;;;;;;;;;66.75;53.25;;;;;-1.86;57.91;101913.69;5075876;28;45249;-48
2022/12/18 09:08:22;;;;;;;;;51.75;43.25;;;;;-1.84;57.83;101905.25;5060336;28;45260;-46
2022/12/18 09:10:49;;;;;;;;;68.75;51.25;;;;;-1.79;57.50;101908.09;5060345;27;46669;-45
2022/12/18 09:13:15;;;;;;;;;66.50;51.75;;;;;-1.76;57.36;101904.78;5060584;27;45156;-47
2022/12/18 09:16:02;;;;;;;;;55.75;45.00;;;;;-1.72;57.46;101904.19;5060013;28;45304;-48
2022/12/18 09:18:28;;;;;;;;;66.75;53.00;;;;;-1.68;57.13;101903.53;5060399;28;45410;-46
2022/12/18 09:20:53;;;;;;;;;59.50;46.25;;;;;-1.67;57.14;101890.72;5059900;28;45444;-45
2022/12/18 09:23:19;;;;;;;;;68.25;53.25;;;;;-1.64;57.23;101895.16;5060022;28;45323;-45
2022/12/18 09:25:44;;;;;;;;;65.00;53.25;;;;;-1.58;57.21;101897.19;5060115;28;45272;-45
2022/12/18 09:28:17;;;;;;;;;82.00;63.00;;;;;-1.58;57.73;101884.28;5059895;28;45323;-45
2022/12/18 09:30:46;;;;;;;;;68.25;52.25;;;;;-1.51;57.33;101884.69;5059940;27;45257;-45
2022/12/18 09:33:13;;;;;;;;;62.25;49.00;;;;;-1.47;57.59;101893.50;5059883;28;45370;-46
2022/12/18 09:35:39;;;;;;;;;65.67;52.67;;;;;-1.44;57.10;101891.06;5059942;28;45236;-44
2022/12/18 09:38:05;;;;;;;;;63.75;46.00;;;;;-1.41;57.50;101888.66;5059960;28;45237;-46
2022/12/18 09:40:36;;;;;;;;;80.00;59.67;;;;;-1.38;57.89;101883.66;5059611;28;46040;-46
2022/12/18 09:43:04;;;;;;;;;75.00;55.67;;;;;-1.35;57.65;101888.97;5059613;28;45484;-45
2022/12/18 09:45:41;;;;;;;;;72.00;55.50;;;;;-1.31;57.54;101890.00;5059682;28;45278;-45
2022/12/18 09:48:15;;;;;;;;;58.25;48.75;;;;;-1.35;57.55;101878.66;5059818;28;45401;-47
2022/12/18 09:50:41;;;;;;;;;55.75;45.50;;;;;-1.36;57.83;101871.75;5059791;28;45207;-44
2022/12/18 09:53:15;;;;;;;;;58.25;46.75;;;;;-1.20;57.89;101893.16;5059438;28;45266;-47
2022/12/18 09:55:44;;;;;;;;;60.50;48.50;;;;;-1.17;57.78;101877.84;5059921;28;45244;-44
2022/12/18 09:58:09;;;;;;;;;61.75;46.00;;;;;-1.13;57.85;101889.19;5059518;28;45469;-43
2022/12/18 10:00:36;;;;;;;;;55.75;43.75;;;;;-1.10;57.78;101884.22;5059386;28;45442;-45
2022/12/18 10:03:10;;;;;;;;;69.75;52.00;;;;;-1.06;57.91;101878.41;5059582;28;45298;-44
2022/12/18 10:05:44;;;;;;;;;70.00;53.00;;;;;-1.03;57.90;101873.38;5075362;28;45351;-44
2022/12/18 10:08:21;;;;;;;;;69.75;54.50;;;;;-0.98;57.58;101874.53;5059459;28;45541;-46
2022/12/18 10:10:52;;;;;;;;;68.00;50.50;;;;;-0.94;57.79;101875.56;5059385;28;46410;-45
2022/12/18 10:13:23;;;;;;;;;63.50;52.50;;;;;-0.88;57.57;101862.97;5075161;28;45388;-45
2022/12/18 10:16:03;;;;;;;;;68.25;54.00;;;;;-0.87;57.56;101857.00;5059231;28;45296;-45
2022/12/18 10:18:37;;;;;;;;;59.75;43.00;;;;;-0.79;57.59;101859.94;5059563;28;45347;-48
2022/12/18 10:21:23;;;;;;;;;65.50;48.75;;;;;-0.73;57.79;101866.34;5059016;28;46122;-46
2022/12/18 10:23:56;;;;;;;;;55.75;45.75;;;;;-0.67;57.60;101861.47;5059211;28;45410;-45
2022/12/18 10:26:21;;;;;;;;;74.75;55.75;;;;;-0.60;57.48;101872.13;5059667;28;45338;-46
2022/12/18 10:28:47;;;;;;;;;68.00;52.75;;;;;-0.59;57.56;101859.28;5062068;28;45173;-44
2022/12/18 10:31:18;;;;;;;;;52.25;45.50;;;;;-0.50;57.49;101849.38;5062334;28;46120;-47
2022/12/18 10:33:44;;;;;;;;;60.75;50.75;;;;;-0.42;57.78;101842.00;5062512;28;45189;-44
2022/12/18 10:36:10;;;;;;;;;62.50;45.25;;;;;-0.35;57.78;101853.53;5062920;28;45336;-46
2022/12/18 10:38:35;;;;;;;;;61.00;48.75;;;;;-0.29;57.78;101851.25;5062616;28;45214;-44
2022/12/18 10:41:11;;;;;;;;;57.50;44.50;;;;;-0.26;58.04;101846.22;5077970;28;46010;-43
2022/12/18 10:43:39;;;;;;;;;63.75;52.25;;;;;-0.15;58.09;101844.16;5062539;28;45579;-46
2022/12/18 10:46:14;;;;;;;;;59.00;44.00;;;;;-0.07;57.47;101840.22;5062412;28;45401;-45
2022/12/18 10:48:55;;;;;;;;;67.00;52.25;;;;;0.03;57.88;101845.84;5062487;28;45249;-43
2022/12/18 10:51:37;;;;;;;;;63.75;46.00;;;;;0.08;57.72;101842.63;5061998;28;45536;-46
2022/12/18 10:54:04;;;;;;;;;60.75;45.50;;;;;0.14;57.89;101842.03;5062459;28;45337;-44
2022/12/18 10:56:33;;;;;;;;;61.75;44.75;;;;;0.19;57.92;101834.47;5062216;28;45460;-44
2022/12/18 10:58:58;;;;;;;;;58.00;46.50;;;;;0.30;57.65;101829.00;5062377;28;45408;-45
2022/12/18 11:01:23;;;;;;;;;61.50;47.75;;;;;0.32;57.73;101824.75;5061692;28;45941;-43
2022/12/18 11:03:57;;;;;;;;;60.75;44.00;;;;;0.40;57.94;101819.06;5062167;28;45326;-48
2022/12/18 11:06:24;;;;;;;;;53.75;44.00;;;;;0.44;57.90;101831.31;5062239;28;45201;-45
2022/12/18 11:09:05;;;;;;;;;65.25;48.00;;;;;0.52;57.81;101829.94;5077702;28;45381;-46
2022/12/18 11:11:33;;;;;;;;;59.75;43.00;;;;;0.58;57.89;101832.81;5077807;27;45383;-44
2022/12/18 11:14:05;;;;;;;;;64.25;48.50;;;;;0.60;57.98;101823.41;5061969;28;45490;-44
2022/12/18 11:16:36;;;;;;;;;59.50;46.00;;;;;0.68;57.81;101825.44;5062058;28;45366;-44
2022/12/18 11:19:24;;;;;;;;;60.00;47.75;;;;;0.76;57.59;101813.75;5077493;28;45425;-46
2022/12/18 11:21:50;;;;;;;;;58.75;48.00;;;;;0.80;57.81;101808.72;5061906;28;45908;-46